createdAt,value
2023-01-19T00:01:42.127Z,13.31
2023-01-19T00:04:10.528Z,13.34
2023-01-19T00:06:38.263Z,13.34
2023-01-19T00:09:06.116Z,13.36
2023-01-19T00:11:33.669Z,13.33
2023-01-19T00:14:01.488Z,13.32
2023-01-19T00:16:29.193Z,13.30
2023-01-19T00:18:57.074Z,13.27
2023-01-19T00:21:25.668Z,13.28
2023-01-19T00:23:53.956Z,13.27
2023-01-19T00:26:22.535Z,13.27
2023-01-19T00:28:51.112Z,13.27
2023-01-19T00:31:20.814Z,13.26
2023-01-19T00:33:49.495Z,13.25
2023-01-19T00:36:17.139Z,13.24
2023-01-19T00:38:45.867Z,13.24
2023-01-19T00:41:13.978Z,13.25
2023-01-19T00:43:42.636Z,13.26
2023-01-19T00:46:10.530Z,13.27
2023-01-19T00:48:38.350Z,13.31
2023-01-19T00:51:06.022Z,13.36
2023-01-19T00:53:33.915Z,13.37
2023-01-19T00:56:01.391Z,13.39
2023-01-19T00:58:29.378Z,13.41
2023-01-19T01:01:03.482Z,13.46
2023-01-19T01:03:32.511Z,13.50
2023-01-19T01:06:00.076Z,13.53
2023-01-19T01:08:28.080Z,13.58
2023-01-19T01:10:56.543Z,13.65
2023-01-19T01:13:27.261Z,13.71
2023-01-19T01:15:57.117Z,13.74
2023-01-19T01:18:26.570Z,13.76
2023-01-19T01:21:01.186Z,13.81
2023-01-19T01:23:29.056Z,13.87
2023-01-19T01:25:56.766Z,13.86
2023-01-19T01:28:24.690Z,13.87
2023-01-19T01:31:11.268Z,13.88
2023-01-19T01:33:40.653Z,13.90
2023-01-19T01:36:11.742Z,13.92
2023-01-19T01:38:41.163Z,13.95
2023-01-19T01:41:09.686Z,14.01
2023-01-19T01:43:51.659Z,14.05
2023-01-19T01:46:20.080Z,14.08
2023-01-19T01:49:05.866Z,14.14
2023-01-19T01:51:48.137Z,14.17
2023-01-19T01:54:28.298Z,14.24
2023-01-19T01:57:03.875Z,14.20
2023-01-19T01:59:40.953Z,14.18
2023-01-19T02:02:37.418Z,14.16
2023-01-19T02:05:30.268Z,14.15
2023-01-19T02:08:40.096Z,14.11
2023-01-19T02:11:27.111Z,14.10
2023-01-19T02:13:54.786Z,14.11
2023-01-19T02:16:22.780Z,14.13
2023-01-19T02:18:50.653Z,14.13
2023-01-19T02:21:52.561Z,14.13
2023-01-19T02:24:21.091Z,14.14
2023-01-19T02:26:50.284Z,14.15
2023-01-19T02:29:25.199Z,14.16
2023-01-19T02:31:54.439Z,14.18
2023-01-19T02:34:23.228Z,14.20
2023-01-19T02:37:13.499Z,14.20
2023-01-19T02:39:51.537Z,14.16
2023-01-19T02:42:25.005Z,14.15
2023-01-19T02:44:55.623Z,14.13
2023-01-19T02:47:24.468Z,14.10
2023-01-19T02:50:00.923Z,14.08
2023-01-19T02:52:29.307Z,14.03
2023-01-19T02:55:16.956Z,13.99
2023-01-19T02:57:59.863Z,13.92
2023-01-19T03:00:59.323Z,13.87
2023-01-19T03:03:59.007Z,13.81
2023-01-19T03:07:14.107Z,13.76
2023-01-19T03:10:02.802Z,13.73
2023-01-19T03:13:10.932Z,13.72
2023-01-19T03:16:05.745Z,13.73
2023-01-19T03:18:36.119Z,13.70
2023-01-19T03:21:07.385Z,13.75
2023-01-19T03:23:38.675Z,13.70
2023-01-19T03:26:12.257Z,13.68
2023-01-19T03:28:42.328Z,13.67
2023-01-19T03:31:26.190Z,13.67
2023-01-19T03:34:06.347Z,13.68
2023-01-19T03:36:45.719Z,13.68
2023-01-19T03:39:19.212Z,13.73
2023-01-19T03:41:51.557Z,13.71
2023-01-19T03:44:19.403Z,13.69
2023-01-19T03:46:48.849Z,13.67
2023-01-19T03:49:16.716Z,13.65
2023-01-19T03:51:44.685Z,13.64
2023-01-19T03:54:12.348Z,13.62
2023-01-19T03:56:40.198Z,13.62
2023-01-19T03:59:08.080Z,13.65
2023-01-19T04:01:36.264Z,13.65
2023-01-19T04:04:03.986Z,13.63
2023-01-19T04:06:32.223Z,13.63
2023-01-19T04:08:59.797Z,13.63
2023-01-19T04:11:27.673Z,13.63
2023-01-19T04:13:55.181Z,13.60
2023-01-19T04:16:23.571Z,13.58
2023-01-19T04:18:52.653Z,13.59
2023-01-19T04:21:20.444Z,13.60
2023-01-19T04:23:49.683Z,13.51
2023-01-19T04:26:17.807Z,13.50
2023-01-19T04:28:45.557Z,13.50
2023-01-19T04:31:13.419Z,13.49
2023-01-19T04:33:40.917Z,13.46
2023-01-19T04:36:09.462Z,13.46
2023-01-19T04:38:37.143Z,13.43
2023-01-19T04:41:05.249Z,13.41
2023-01-19T04:43:32.812Z,13.41
2023-01-19T04:46:00.953Z,13.43
2023-01-19T04:48:28.426Z,13.45
2023-01-19T04:50:56.329Z,13.49
2023-01-19T04:53:23.888Z,13.52
2023-01-19T04:55:55.513Z,13.49
2023-01-19T04:58:23.321Z,13.52
2023-01-19T05:00:52.409Z,13.53
2023-01-19T05:03:20.613Z,13.52
2023-01-19T05:05:48.457Z,13.54
2023-01-19T05:08:15.968Z,13.56
2023-01-19T05:10:43.760Z,13.55
2023-01-19T05:13:11.181Z,13.55
2023-01-19T05:15:39.024Z,13.52
2023-01-19T05:18:06.563Z,13.53
2023-01-19T05:20:34.373Z,13.51
2023-01-19T05:23:02.250Z,13.50
2023-01-19T05:25:30.200Z,13.47
2023-01-19T05:27:57.727Z,13.49
2023-01-19T05:30:25.683Z,13.46
2023-01-19T05:32:53.221Z,13.44
2023-01-19T05:35:31.317Z,13.42
2023-01-19T05:38:03.381Z,13.40
2023-01-19T05:40:31.637Z,13.46
2023-01-19T05:43:01.361Z,13.66
2023-01-19T05:45:29.495Z,13.92
2023-01-19T05:47:57.307Z,14.13
2023-01-19T05:50:25.427Z,14.31
2023-01-19T05:52:55.915Z,14.45
2023-01-19T05:55:24.319Z,14.64
2023-01-19T05:57:52.199Z,14.86
2023-01-19T06:00:20.655Z,15.06
2023-01-19T06:02:49.372Z,15.23
2023-01-19T06:05:17.528Z,15.29
2023-01-19T06:07:45.074Z,15.26
2023-01-19T06:10:12.952Z,15.22
2023-01-19T06:12:41.648Z,15.18
2023-01-19T06:15:10.048Z,15.12
2023-01-19T06:17:37.818Z,15.08
2023-01-19T06:20:07.092Z,15.02
2023-01-19T06:22:34.617Z,14.98
2023-01-19T06:25:02.983Z,14.95
2023-01-19T06:27:30.640Z,14.90
2023-01-19T06:29:58.427Z,14.86
2023-01-19T06:32:25.992Z,14.81
2023-01-19T06:34:54.192Z,14.59
2023-01-19T06:37:21.900Z,14.38
2023-01-19T06:39:49.969Z,14.10
2023-01-19T06:42:17.578Z,13.84
2023-01-19T06:44:47.985Z,13.63
2023-01-19T06:47:16.781Z,13.53
2023-01-19T06:49:44.869Z,13.52
2023-01-19T06:52:17.701Z,13.57
2023-01-19T06:54:46.312Z,13.56
2023-01-19T06:57:14.991Z,13.51
2023-01-19T06:59:42.984Z,13.46
2023-01-19T07:02:27.394Z,13.40
2023-01-19T07:04:57.117Z,13.38
2023-01-19T07:07:25.314Z,13.34
2023-01-19T07:09:54.193Z,13.29
2023-01-19T07:12:22.926Z,13.16
2023-01-19T07:14:51.474Z,13.10
2023-01-19T07:17:19.463Z,13.09
2023-01-19T07:19:47.442Z,13.10
2023-01-19T07:22:15.125Z,13.08
2023-01-19T07:24:43.093Z,13.09
2023-01-19T07:27:11.690Z,13.12
2023-01-19T07:29:40.032Z,13.16
2023-01-19T07:32:07.810Z,13.18
2023-01-19T07:34:36.552Z,13.22
2023-01-19T07:37:04.564Z,13.25
2023-01-19T07:39:32.534Z,13.28
2023-01-19T07:42:00.469Z,13.34
2023-01-19T07:44:28.416Z,13.35
2023-01-19T07:46:56.257Z,13.39
2023-01-19T07:49:25.351Z,13.43
2023-01-19T07:51:53.277Z,13.51
2023-01-19T07:54:21.184Z,13.53
2023-01-19T07:56:48.733Z,13.57
2023-01-19T07:59:16.948Z,13.60
2023-01-19T08:01:45.045Z,13.63
2023-01-19T08:04:13.486Z,13.67
2023-01-19T08:06:45.353Z,13.69
2023-01-19T08:09:13.720Z,13.71
2023-01-19T08:11:41.894Z,13.74
2023-01-19T08:14:10.288Z,13.77
2023-01-19T08:16:38.363Z,13.80
2023-01-19T08:19:06.174Z,13.84
2023-01-19T08:21:35.633Z,13.88
2023-01-19T08:24:03.831Z,13.91
2023-01-19T08:26:35.427Z,13.92
2023-01-19T08:29:06.183Z,13.95
2023-01-19T08:31:34.197Z,14.00
2023-01-19T08:34:02.389Z,14.02
2023-01-19T08:36:30.408Z,14.06
2023-01-19T08:38:58.501Z,14.09
2023-01-19T08:41:26.527Z,14.13
2023-01-19T08:43:54.409Z,14.17
2023-01-19T08:46:22.190Z,14.19
2023-01-19T08:48:50.573Z,14.20
2023-01-19T08:51:18.560Z,14.21
2023-01-19T08:53:46.549Z,14.25
2023-01-19T08:56:14.544Z,14.29
2023-01-19T08:58:45.039Z,14.29
2023-01-19T09:01:15.067Z,14.32
2023-01-19T09:03:44.070Z,14.35
2023-01-19T09:06:16.958Z,14.38
2023-01-19T09:08:45.963Z,14.42
2023-01-19T09:11:15.800Z,14.47
2023-01-19T09:13:44.544Z,14.50
2023-01-19T09:16:13.506Z,14.52
2023-01-19T09:18:41.517Z,14.51
2023-01-19T09:21:10.041Z,14.51
2023-01-19T09:23:38.200Z,14.56
2023-01-19T09:26:07.191Z,14.63
2023-01-19T09:28:35.006Z,14.71
2023-01-19T09:31:09.079Z,14.75
2023-01-19T09:33:37.177Z,14.82
2023-01-19T09:36:05.005Z,14.89
2023-01-19T09:38:33.247Z,14.92
2023-01-19T09:41:01.757Z,14.91
2023-01-19T09:43:47.897Z,14.89
2023-01-19T09:46:35.224Z,14.93
2023-01-19T09:49:16.659Z,14.99
2023-01-19T09:51:48.886Z,15.03
2023-01-19T09:54:36.574Z,15.05
2023-01-19T09:57:11.702Z,15.08
2023-01-19T09:59:39.778Z,15.10
2023-01-19T10:02:43.083Z,15.17
2023-01-19T10:05:45.223Z,15.23
2023-01-19T10:08:42.579Z,15.28
2023-01-19T10:11:51.473Z,15.24
2023-01-19T10:14:36.511Z,15.22
2023-01-19T10:17:38.735Z,15.32
2023-01-19T10:20:23.038Z,15.30
2023-01-19T10:22:51.163Z,15.26
2023-01-19T10:25:24.543Z,15.33
2023-01-19T10:27:52.546Z,15.42
2023-01-19T10:30:29.000Z,15.50
2023-01-19T10:32:56.955Z,15.56
2023-01-19T10:35:25.231Z,15.66
2023-01-19T10:38:01.574Z,15.74
2023-01-19T10:40:58.694Z,15.83
2023-01-19T10:43:35.620Z,15.90
2023-01-19T10:46:08.231Z,15.96
2023-01-19T10:48:42.144Z,16.00
2023-01-19T10:51:12.014Z,15.96
2023-01-19T10:53:52.352Z,15.99
2023-01-19T10:56:50.684Z,16.01
2023-01-19T10:59:49.628Z,16.05
2023-01-19T11:02:26.709Z,16.08
2023-01-19T11:05:22.197Z,16.02
2023-01-19T11:07:49.738Z,16.08
2023-01-19T11:10:17.657Z,16.13
2023-01-19T11:13:12.835Z,16.19
2023-01-19T11:15:59.947Z,16.32
2023-01-19T11:18:31.753Z,16.37
2023-01-19T11:21:06.585Z,16.42
2023-01-19T11:23:44.098Z,16.40
2023-01-19T11:26:48.104Z,16.39
2023-01-19T11:29:25.533Z,16.42
2023-01-19T11:31:55.432Z,16.51
2023-01-19T11:34:28.558Z,16.61
2023-01-19T11:37:29.391Z,16.70
2023-01-19T11:40:00.508Z,16.71
2023-01-19T11:42:33.621Z,16.71
2023-01-19T11:45:22.393Z,16.71
2023-01-19T11:47:52.522Z,16.65
2023-01-19T11:50:39.110Z,16.53
2023-01-19T11:53:30.635Z,16.36
2023-01-19T11:56:11.793Z,16.17
2023-01-19T11:58:44.464Z,16.04
2023-01-19T12:01:49.573Z,15.83
2023-01-19T12:04:36.476Z,15.60
2023-01-19T12:07:09.013Z,15.53
2023-01-19T12:09:47.645Z,15.48
2023-01-19T12:12:35.313Z,15.41
2023-01-19T12:15:23.547Z,15.44
2023-01-19T12:17:54.493Z,14.93
2023-01-19T12:20:53.669Z,14.45
2023-01-19T12:23:46.779Z,14.20
2023-01-19T12:26:38.509Z,13.54
2023-01-19T12:29:29.242Z,13.17
2023-01-19T12:32:21.848Z,12.79
2023-01-19T12:34:52.140Z,12.57
2023-01-19T12:37:32.997Z,12.65
2023-01-19T12:40:30.278Z,12.82
2023-01-19T12:43:05.337Z,12.63
2023-01-19T12:45:36.106Z,12.54
2023-01-19T12:48:06.930Z,12.54
2023-01-19T12:50:38.306Z,12.48
2023-01-19T12:53:19.379Z,12.47
2023-01-19T12:56:00.067Z,12.60
2023-01-19T12:58:28.116Z,12.80
2023-01-19T13:01:21.550Z,12.79
2023-01-19T13:04:32.846Z,12.77
2023-01-19T13:07:06.132Z,12.75
2023-01-19T13:09:39.832Z,12.72
2023-01-19T13:12:22.540Z,12.55
2023-01-19T13:14:51.036Z,12.52
2023-01-19T13:17:33.585Z,12.53
2023-01-19T13:20:22.767Z,12.47
2023-01-19T13:23:20.793Z,12.34
2023-01-19T13:25:53.647Z,12.15
2023-01-19T13:28:33.011Z,12.17
2023-01-19T13:31:02.854Z,12.24
2023-01-19T13:33:56.835Z,12.40
2023-01-19T13:36:41.361Z,12.39
2023-01-19T13:39:28.059Z,12.53
2023-01-19T13:42:01.389Z,12.41
2023-01-19T13:44:39.332Z,12.27
2023-01-19T13:47:19.336Z,12.21
2023-01-19T13:49:49.598Z,11.96
2023-01-19T13:52:22.759Z,11.89
2023-01-19T13:55:03.746Z,11.75
2023-01-19T13:57:46.370Z,11.60
2023-01-19T14:00:16.743Z,11.50
2023-01-19T14:03:01.021Z,11.47
2023-01-19T14:05:39.613Z,11.46
2023-01-19T14:08:13.007Z,11.44
2023-01-19T14:10:52.164Z,11.33
2023-01-19T14:13:22.498Z,11.30
2023-01-19T14:16:04.245Z,11.12
2023-01-19T14:18:34.250Z,10.92
2023-01-19T14:21:08.534Z,10.84
2023-01-19T14:23:53.066Z,10.62
2023-01-19T14:26:48.538Z,10.43
2023-01-19T14:29:27.058Z,10.26
2023-01-19T14:32:00.607Z,10.19
2023-01-19T14:34:42.079Z,10.15
2023-01-19T14:37:21.675Z,10.06
2023-01-19T14:40:12.903Z,9.87
2023-01-19T14:42:43.316Z,9.91
2023-01-19T14:45:37.460Z,9.70
2023-01-19T14:48:17.968Z,9.46
2023-01-19T14:51:02.029Z,9.39
2023-01-19T14:53:39.004Z,9.47
2023-01-19T14:56:07.747Z,9.37
2023-01-19T14:58:36.443Z,9.33
2023-01-19T15:01:04.788Z,9.38
2023-01-19T15:03:44.224Z,9.41
2023-01-19T15:06:19.817Z,9.43
2023-01-19T15:08:50.215Z,9.41
2023-01-19T15:11:28.205Z,9.47
2023-01-19T15:13:55.911Z,9.46
2023-01-19T15:16:26.097Z,9.50
2023-01-19T15:18:53.867Z,9.57
2023-01-19T15:21:29.277Z,9.64
2023-01-19T15:23:58.550Z,9.74
2023-01-19T15:26:27.625Z,9.80
2023-01-19T15:28:56.453Z,9.79
2023-01-19T15:31:26.556Z,9.71
2023-01-19T15:33:54.153Z,9.65
2023-01-19T15:36:24.518Z,9.45
2023-01-19T15:38:52.315Z,9.33
2023-01-19T15:41:29.942Z,9.23
2023-01-19T15:43:58.503Z,9.25
2023-01-19T15:46:26.995Z,9.24
2023-01-19T15:48:54.865Z,9.09
2023-01-19T15:51:25.926Z,9.04
2023-01-19T15:53:55.027Z,8.92
2023-01-19T15:56:29.506Z,8.81
2023-01-19T15:58:58.772Z,8.81
2023-01-19T16:01:32.352Z,8.94
2023-01-19T16:04:03.369Z,8.93
2023-01-19T16:06:32.396Z,8.96
2023-01-19T16:09:01.423Z,8.83
2023-01-19T16:11:32.835Z,8.81
2023-01-19T16:14:01.225Z,8.73
2023-01-19T16:16:29.360Z,8.51
2023-01-19T16:18:57.760Z,8.52
2023-01-19T16:21:26.112Z,8.50
2023-01-19T16:23:53.927Z,8.55
2023-01-19T16:26:34.554Z,8.66
2023-01-19T16:29:08.969Z,8.66
2023-01-19T16:31:42.708Z,8.70
2023-01-19T16:34:10.567Z,8.55
2023-01-19T16:36:40.905Z,8.36
2023-01-19T16:39:13.515Z,8.31
2023-01-19T16:41:43.155Z,8.35
2023-01-19T16:44:13.031Z,8.33
2023-01-19T16:46:44.450Z,8.32
2023-01-19T16:49:18.903Z,8.42
2023-01-19T16:51:47.030Z,8.48
2023-01-19T16:54:17.710Z,8.58
2023-01-19T16:56:45.732Z,8.48
2023-01-19T16:59:15.994Z,8.39
2023-01-19T17:01:45.176Z,8.39
2023-01-19T17:04:14.384Z,8.39
2023-01-19T17:06:42.307Z,8.50
2023-01-19T17:09:10.269Z,8.40
2023-01-19T17:11:40.313Z,8.35
2023-01-19T17:14:14.598Z,8.15
2023-01-19T17:16:43.416Z,8.05
2023-01-19T17:19:16.019Z,7.99
2023-01-19T17:21:49.096Z,8.05
2023-01-19T17:24:17.545Z,8.00
2023-01-19T17:26:48.578Z,8.02
2023-01-19T17:29:16.926Z,8.06
2023-01-19T17:31:46.038Z,8.05
2023-01-19T17:34:13.608Z,8.15
2023-01-19T17:36:41.577Z,8.07
2023-01-19T17:39:14.964Z,7.89
2023-01-19T17:41:43.369Z,7.97
2023-01-19T17:44:11.233Z,8.08
2023-01-19T17:46:39.714Z,8.23
2023-01-19T17:49:08.316Z,8.21
2023-01-19T17:51:36.486Z,8.24
2023-01-19T17:54:04.798Z,8.16
2023-01-19T17:56:36.949Z,8.10
2023-01-19T17:59:07.746Z,8.00
2023-01-19T18:01:40.135Z,7.97
2023-01-19T18:04:08.916Z,7.95
2023-01-19T18:06:38.152Z,7.97
2023-01-19T18:09:09.044Z,8.09
2023-01-19T18:11:36.981Z,8.14
2023-01-19T18:14:06.018Z,8.13
2023-01-19T18:16:34.002Z,8.14
2023-01-19T18:19:01.756Z,8.14
2023-01-19T18:21:30.556Z,8.15
2023-01-19T18:24:04.334Z,8.13
2023-01-19T18:26:34.886Z,8.17
2023-01-19T18:29:02.504Z,8.21
2023-01-19T18:31:31.382Z,8.23
2023-01-19T18:33:59.393Z,8.27
2023-01-19T18:36:27.371Z,8.28
2023-01-19T18:38:54.895Z,8.33
2023-01-19T18:41:23.044Z,8.28
2023-01-19T18:43:52.064Z,8.20
2023-01-19T18:46:21.251Z,8.20
2023-01-19T18:48:48.831Z,8.15
2023-01-19T18:51:17.037Z,8.15
2023-01-19T18:53:45.293Z,8.08
2023-01-19T18:56:15.755Z,8.04
2023-01-19T18:58:43.951Z,7.99
2023-01-19T19:01:32.401Z,8.01
2023-01-19T19:04:00.747Z,8.04
2023-01-19T19:06:30.098Z,8.06
2023-01-19T19:08:59.418Z,7.98
2023-01-19T19:11:28.352Z,7.98
2023-01-19T19:14:01.972Z,7.98
2023-01-19T19:16:31.677Z,8.01
2023-01-19T19:19:00.933Z,7.98
2023-01-19T19:21:28.773Z,7.99
2023-01-19T19:23:58.375Z,8.03
2023-01-19T19:26:28.297Z,8.09
2023-01-19T19:28:56.269Z,8.12
2023-01-19T19:31:26.238Z,8.17
2023-01-19T19:33:56.451Z,8.20
2023-01-19T19:36:27.105Z,8.23
2023-01-19T19:38:55.171Z,8.22
2023-01-19T19:41:28.645Z,8.13
2023-01-19T19:43:56.626Z,8.09
2023-01-19T19:46:26.845Z,8.07
2023-01-19T19:48:54.910Z,8.05
2023-01-19T19:51:27.255Z,8.03
2023-01-19T19:54:00.828Z,8.05
2023-01-19T19:56:33.011Z,8.11
2023-01-19T19:59:02.716Z,8.11
2023-01-19T20:01:33.607Z,8.05
2023-01-19T20:04:10.750Z,8.04
2023-01-19T20:06:45.869Z,8.09
2023-01-19T20:09:15.802Z,8.11
2023-01-19T20:11:46.917Z,8.06
2023-01-19T20:14:16.342Z,8.02
2023-01-19T20:16:44.605Z,7.90
2023-01-19T20:19:12.440Z,7.80
2023-01-19T20:21:42.492Z,7.79
2023-01-19T20:24:20.899Z,7.77
2023-01-19T20:26:52.329Z,7.84
2023-01-19T20:29:20.603Z,7.85
2023-01-19T20:31:55.428Z,7.83
2023-01-19T20:34:32.051Z,7.74
2023-01-19T20:37:02.605Z,7.62
2023-01-19T20:39:33.485Z,7.65
2023-01-19T20:42:02.393Z,7.67
2023-01-19T20:44:30.386Z,7.67
2023-01-19T20:46:58.476Z,7.69
2023-01-19T20:49:26.128Z,7.73
2023-01-19T20:51:54.368Z,7.71
2023-01-19T20:54:27.191Z,7.70
2023-01-19T20:56:55.537Z,7.69
2023-01-19T20:59:24.231Z,7.62
2023-01-19T21:01:52.715Z,7.65
2023-01-19T21:04:20.345Z,7.60
2023-01-19T21:06:48.794Z,7.52
2023-01-19T21:09:16.442Z,7.43
2023-01-19T21:11:44.417Z,7.43
2023-01-19T21:14:12.004Z,7.44
2023-01-19T21:16:40.349Z,7.39
2023-01-19T21:19:08.127Z,7.32
2023-01-19T21:21:36.051Z,7.35
2023-01-19T21:24:05.042Z,7.43
2023-01-19T21:26:33.665Z,7.49
2023-01-19T21:29:03.621Z,7.54
2023-01-19T21:31:31.894Z,7.46
2023-01-19T21:33:59.655Z,7.45
2023-01-19T21:36:27.649Z,7.48
2023-01-19T21:39:01.052Z,7.45
2023-01-19T21:41:30.221Z,7.45
2023-01-19T21:44:00.052Z,7.46
2023-01-19T21:46:33.236Z,7.46
2023-01-19T21:49:05.181Z,7.47
2023-01-19T21:51:36.255Z,7.50
2023-01-19T21:54:06.090Z,7.54
2023-01-19T21:56:35.090Z,7.52
2023-01-19T21:59:03.524Z,7.55
2023-01-19T22:01:33.939Z,7.59
2023-01-19T22:04:01.772Z,7.59
2023-01-19T22:06:30.025Z,7.54
2023-01-19T22:08:58.480Z,7.36
2023-01-19T22:11:27.017Z,7.30
2023-01-19T22:13:55.093Z,7.27
2023-01-19T22:16:24.092Z,7.21
2023-01-19T22:18:56.234Z,7.19
2023-01-19T22:21:31.048Z,7.23
2023-01-19T22:24:01.219Z,7.23
2023-01-19T22:26:31.528Z,7.20
2023-01-19T22:29:01.893Z,7.21
2023-01-19T22:31:30.923Z,7.21
2023-01-19T22:33:59.364Z,7.20
2023-01-19T22:36:35.762Z,7.21
2023-01-19T22:39:11.741Z,7.31
2023-01-19T22:41:47.233Z,7.27
2023-01-19T22:44:21.269Z,7.29
2023-01-19T22:46:53.815Z,7.25
2023-01-19T22:49:21.857Z,7.20
2023-01-19T22:51:49.970Z,7.21
2023-01-19T22:54:17.622Z,7.17
2023-01-19T22:56:45.863Z,7.10
2023-01-19T22:59:13.491Z,7.07
2023-01-19T23:01:43.708Z,7.05
2023-01-19T23:04:14.878Z,7.05
2023-01-19T23:06:43.386Z,7.01
2023-01-19T23:09:14.477Z,6.99
2023-01-19T23:11:48.179Z,6.97
2023-01-19T23:14:19.763Z,6.91
2023-01-19T23:16:48.370Z,6.92
2023-01-19T23:19:19.432Z,6.93
2023-01-19T23:21:52.228Z,6.83
2023-01-19T23:24:19.896Z,6.85
2023-01-19T23:26:50.492Z,6.87
2023-01-19T23:29:18.516Z,6.87
2023-01-19T23:31:49.329Z,6.89
2023-01-19T23:34:17.728Z,6.96
2023-01-19T23:36:45.931Z,7.04
2023-01-19T23:39:19.217Z,7.10
2023-01-19T23:41:47.768Z,7.09
2023-01-19T23:44:17.325Z,7.05
2023-01-19T23:46:45.912Z,6.95
2023-01-19T23:49:14.123Z,6.87
2023-01-19T23:51:42.791Z,6.86
2023-01-19T23:54:12.231Z,6.85
2023-01-19T23:56:40.495Z,6.86
2023-01-19T23:59:15.235Z,6.85
